Time;durP1;ratioP1;P1;durP2;ratioP2;P2;SDS_P1;SDS_P2;PMS_P1;PMS_P2;Temp;Humidity;BMP_temperature;BMP_pressure;BME280_temperature;BME280_humidity;BME280_pressure;Samples;Min_cycle;Max_cycle;Signal;HPM_P1;HPM_P2
2022/04/25 00:02:02;;;;;;;;;;;;;;;;;;5117234;27;1159;-77
2022/04/25 00:04:31;;;;;;;;;;;;;;;;;;5088111;28;1346;-77
2022/04/25 00:06:56;;;;;;;;;;;;;;;;;;5109696;27;1956;-75
2022/04/25 00:09:22;;;;;;;;;;;;;;;;;;5087650;28;1696;-76
2022/04/25 00:11:47;;;;;;;;;;;;;;;;;;5105086;28;1179;-75
2022/04/25 00:14:14;;;;;;;;;;;;;;;;;;5087961;28;1228;-76
2022/04/25 00:16:39;;;;;;;;;;;;;;;;;;5106380;27;1283;-76
2022/04/25 00:19:05;;;;;;;;;;;;;;;;;;5104818;28;1372;-76
2022/04/25 00:21:30;;;;;;;;;;;;;;;;;;5088022;28;1161;-76
2022/04/25 00:23:57;;;;;;;;;;;;;;;;;;5087839;28;1348;-76
2022/04/25 00:26:23;;;;;;;;;;;;;;;;;;5106025;28;1952;-76
2022/04/25 00:28:48;;;;;;;;;;;;;;;;;;5108528;27;1321;-77
2022/04/25 00:31:13;;;;;;;;;;;;;;;;;;5126435;27;1147;-75
2022/04/25 00:33:39;;;;;;;;;;;;;;;;;;5127917;27;1221;-76
2022/04/25 00:36:04;;;;;;;;;;;;;;;;;;5104771;28;1031;-76
2022/04/25 00:38:29;;;;;;;;;;;;;;;;;;5105747;27;1226;-76
2022/04/25 00:40:58;;;;;;;;;;;;;;;;;;5125246;27;1277;-75
2022/04/25 00:43:23;;;;;;;;;;;;;;;;;;5127278;27;1406;-76
2022/04/25 00:45:49;;;;;;;;;;;;;;;;;;5127790;27;1243;-76
2022/04/25 00:48:14;;;;;;;;;;;;;;;;;;5125253;27;1917;-76
2022/04/25 00:50:40;;;;;;;;;;;;;;;;;;5126192;27;1349;-76
2022/04/25 00:53:06;;;;;;;;;;;;;;;;;;5127990;27;1163;-77
2022/04/25 00:55:31;;;;;;;;;;;;;;;;;;5123392;27;1184;-76
2022/04/25 00:57:58;;;;;;;;;;;;;;;;;;5105535;28;1159;-75
2022/04/25 01:00:24;;;;;;;;;;;;;;;;;;5105649;28;1171;-75
2022/04/25 01:02:49;;;;;;;;;;;;;;;;;;5106136;28;1393;-76
2022/04/25 01:05:15;;;;;;;;;;;;;;;;;;5094743;27;1277;-76
2022/04/25 01:07:40;;;;;;;;;;;;;;;;;;5125680;27;1874;-75
2022/04/25 01:10:06;;;;;;;;;;;;;;;;;;5108802;27;1208;-77
2022/04/25 01:12:32;;;;;;;;;;;;;;;;;;5124203;27;1204;-76
2022/04/25 01:15:03;;;;;;;;;;;;;;;;;;5109454;27;1136;-76
2022/04/25 01:17:29;;;;;;;;;;;;;;;;;;5125134;27;1258;-76
2022/04/25 01:19:54;;;;;;;;;;;;;;;;;;5124786;27;1205;-76
2022/04/25 01:22:21;;;;;;;;;;;;;;;;;;5125157;27;1221;-76
2022/04/25 01:27:32;;;;;;;;;;;;;;;;;;5125241;27;1972;-76
2022/04/25 01:29:57;;;;;;;;;;;;;;;;;;5125600;27;1336;-76
2022/04/25 01:32:23;;;;;;;;;;;;;;;;;;5108016;27;1346;-77
2022/04/25 01:34:48;;;;;;;;;;;;;;;;;;5115902;27;1155;-76
2022/04/25 01:37:15;;;;;;;;;;;;;;;;;;5120548;27;1408;-77
2022/04/25 01:39:41;;;;;;;;;;;;;;;;;;5119739;27;1154;-76
2022/04/25 01:42:07;;;;;;;;;;;;;;;;;;5110527;27;1245;-76
2022/04/25 01:44:32;;;;;;;;;;;;;;;;;;5117243;27;1262;-75
2022/04/25 01:46:58;;;;;;;;;;;;;;;;;;5107583;27;1995;-76
2022/04/25 01:49:33;;;;;;;;;;;;;;;;;;5123363;27;1322;-77
2022/04/25 01:52:07;;;;;;;;;;;;;;;;;;5125512;27;1359;-75
2022/04/25 01:54:32;;;;;;;;;;;;;;;;;;5107422;27;1336;-76
2022/04/25 01:56:58;;;;;;;;;;;;;;;;;;5124918;27;1197;-75
2022/04/25 01:59:24;;;;;;;;;;;;;;;;;;5124306;27;1144;-75
2022/04/25 02:01:51;;;;;;;;;;;;;;;;;;5124361;27;1274;-75
2022/04/25 02:04:16;;;;;;;;;;;;;;;;;;5124276;27;1197;-77
2022/04/25 02:06:41;;;;;;;;;;;;;;;;;;5104212;27;1909;-76
2022/04/25 02:09:08;;;;;;;;;;;;;;;;;;5118380;27;1273;-77
2022/04/25 02:11:33;;;;;;;;;;;;;;;;;;5123167;27;1163;-76
2022/04/25 02:13:59;;;;;;;;;;;;;;;;;;5124817;27;1297;-75
2022/04/25 02:16:25;;;;;;;;;;;;;;;;;;5101951;28;1191;-77
2022/04/25 02:18:51;;;;;;;;;;;;;;;;;;5105499;28;1107;-76
2022/04/25 02:21:17;;;;;;;;;;;;;;;;;;5113507;27;1373;-75
2022/04/25 02:23:42;;;;;;;;;;;;;;;;;;5105121;28;1215;-74
2022/04/25 02:26:08;;;;;;;;;;;;;;;;;;5103605;28;1901;-76
2022/04/25 02:28:34;;;;;;;;;;;;;;;;;;5107376;27;1293;-76
2022/04/25 02:31:00;;;;;;;;;;;;;;;;;;5116087;27;1159;-76
2022/04/25 02:33:27;;;;;;;;;;;;;;;;;;5123272;27;1052;-76
2022/04/25 02:35:52;;;;;;;;;;;;;;;;;;5120282;27;1336;-76
2022/04/25 02:38:17;;;;;;;;;;;;;;;;;;5124030;27;1170;-75
2022/04/25 02:41:04;;;;;;;;;;;;;;;;;;5101574;28;1339;-75
2022/04/25 02:43:33;;;;;;;;;;;;;;;;;;5121348;28;1123;-76
2022/04/25 02:45:59;;;;;;;;;;;;;;;;;;5124981;27;1043;-75
2022/04/25 02:48:24;;;;;;;;;;;;;;;;;;5119995;27;1902;-75
2022/04/25 02:50:49;;;;;;;;;;;;;;;;;;5104818;28;1259;-76
2022/04/25 02:53:15;;;;;;;;;;;;;;;;;;5085187;28;1361;-76
2022/04/25 02:55:47;;;;;;;;;;;;;;;;;;5103784;28;1218;-76
2022/04/25 02:58:14;;;;;;;;;;;;;;;;;;5086795;28;1302;-76
2022/04/25 03:00:41;;;;;;;;;;;;;;;;;;5107693;28;1252;-76
2022/04/25 03:03:06;;;;;;;;;;;;;;;;;;5106462;28;1671;-76
2022/04/25 03:05:32;;;;;;;;;;;;;;;;;;5094058;28;1223;-77
2022/04/25 03:07:57;;;;;;;;;;;;;;;;;;5102953;28;1897;-76
2022/04/25 03:10:22;;;;;;;;;;;;;;;;;;5102421;28;1176;-76
2022/04/25 03:12:47;;;;;;;;;;;;;;;;;;5104428;28;1140;-76
2022/04/25 03:15:16;;;;;;;;;;;;;;;;;;5085592;28;1353;-75
2022/04/25 03:17:41;;;;;;;;;;;;;;;;;;5122089;28;1214;-76
2022/04/25 03:20:07;;;;;;;;;;;;;;;;;;5118195;27;1123;-75
2022/04/25 03:22:33;;;;;;;;;;;;;;;;;;5103980;28;1144;-76
2022/04/25 03:24:58;;;;;;;;;;;;;;;;;;5103873;28;1152;-75
2022/04/25 03:27:23;;;;;;;;;;;;;;;;;;5101123;28;1890;-75
2022/04/25 03:29:48;;;;;;;;;;;;;;;;;;5107991;28;1080;-76
2022/04/25 03:32:15;;;;;;;;;;;;;;;;;;5109252;28;1108;-75
2022/04/25 03:34:41;;;;;;;;;;;;;;;;;;5092036;27;1196;-76
2022/04/25 03:37:07;;;;;;;;;;;;;;;;;;5128871;27;1119;-76
2022/04/25 03:39:32;;;;;;;;;;;;;;;;;;5107066;27;1311;-76
2022/04/25 03:41:57;;;;;;;;;;;;;;;;;;5126532;27;1151;-76
2022/04/25 03:44:22;;;;;;;;;;;;;;;;;;5125905;27;1322;-76
2022/04/25 03:46:48;;;;;;;;;;;;;;;;;;5128552;27;1963;-76
2022/04/25 03:49:17;;;;;;;;;;;;;;;;;;5092624;28;1166;-77
2022/04/25 03:51:42;;;;;;;;;;;;;;;;;;5089606;28;1349;-75
2022/04/25 03:54:07;;;;;;;;;;;;;;;;;;5106722;28;1095;-76
2022/04/25 03:59:17;;;;;;;;;;;;;;;;;;5108526;28;1092;-76
2022/04/25 04:01:42;;;;;;;;;;;;;;;;;;5127061;27;1355;-75
2022/04/25 04:04:07;;;;;;;;;;;;;;;;;;5132034;27;1229;-76
2022/04/25 04:06:33;;;;;;;;;;;;;;;;;;5107372;28;1902;-75
2022/04/25 04:08:59;;;;;;;;;;;;;;;;;;5105737;28;1298;-76
2022/04/25 04:11:46;;;;;;;;;;;;;;;;;;5103208;28;1328;-75
2022/04/25 04:14:09;;;;;;;;;;;;;;;;;;5109862;27;1175;-75
2022/04/25 04:16:34;;;;;;;;;;;;;;;;;;5106497;28;1310;-76
2022/04/25 04:19:00;;;;;;;;;;;;;;;;;;5106016;28;1176;-76
2022/04/25 04:21:25;;;;;;;;;;;;;;;;;;5087095;28;1243;-75
2022/04/25 04:23:53;;;;;;;;;;;;;;;;;;5105925;28;1211;-76
2022/04/25 04:26:19;;;;;;;;;;;;;;;;;;5103242;28;1973;-76
2022/04/25 04:28:45;;;;;;;;;;;;;;;;;;5103937;28;1166;-76
2022/04/25 04:31:10;;;;;;;;;;;;;;;;;;5091941;27;1270;-77
2022/04/25 04:33:35;;;;;;;;;;;;;;;;;;5107096;27;1326;-75
2022/04/25 04:38:45;;;;;;;;;;;;;;;;;;5115682;27;1070;-79
2022/04/25 04:41:11;;;;;;;;;;;;;;;;;;5123126;27;1210;-77
2022/04/25 04:43:36;;;;;;;;;;;;;;;;;;5107570;27;1338;-76
2022/04/25 04:46:01;;;;;;;;;;;;;;;;;;5107706;27;1257;-74
2022/04/25 04:48:27;;;;;;;;;;;;;;;;;;5104252;27;1906;-75
2022/04/25 04:50:55;;;;;;;;;;;;;;;;;;5087461;28;1286;-76
2022/04/25 04:53:26;;;;;;;;;;;;;;;;;;5110326;27;1353;-77
2022/04/25 04:55:52;;;;;;;;;;;;;;;;;;5116012;27;1402;-76
2022/04/25 04:58:21;;;;;;;;;;;;;;;;;;5126851;27;1237;-76
2022/04/25 05:00:47;;;;;;;;;;;;;;;;;;5124070;27;1132;-76
2022/04/25 05:03:19;;;;;;;;;;;;;;;;;;5110337;27;1284;-76
2022/04/25 05:05:45;;;;;;;;;;;;;;;;;;5113456;27;1091;-75
2022/04/25 05:08:15;;;;;;;;;;;;;;;;;;5094060;27;1953;-75
2022/04/25 05:10:49;;;;;;;;;;;;;;;;;;5115175;27;1110;-76
2022/04/25 05:13:15;;;;;;;;;;;;;;;;;;5113303;27;1293;-76
2022/04/25 05:15:41;;;;;;;;;;;;;;;;;;5085979;28;1404;-76
2022/04/25 05:18:07;;;;;;;;;;;;;;;;;;5117572;27;1166;-76
2022/04/25 05:20:32;;;;;;;;;;;;;;;;;;5123986;27;1328;-76
2022/04/25 05:22:58;;;;;;;;;;;;;;;;;;5113318;27;1143;-77
2022/04/25 05:25:27;;;;;;;;;;;;;;;;;;5085521;28;1309;-75
2022/04/25 05:27:53;;;;;;;;;;;;;;;;;;5102004;28;1939;-76
2022/04/25 05:30:19;;;;;;;;;;;;;;;;;;5106016;28;1202;-75
2022/04/25 05:32:47;;;;;;;;;;;;;;;;;;5106952;27;1214;-76
2022/04/25 05:35:13;;;;;;;;;;;;;;;;;;5124404;27;1288;-76
2022/04/25 05:37:38;;;;;;;;;;;;;;;;;;5124318;27;1283;-76
2022/04/25 05:40:04;;;;;;;;;;;;;;;;;;5122950;27;1044;-76
2022/04/25 05:42:30;;;;;;;;;;;;;;;;;;5123753;27;1179;-76
2022/04/25 05:44:55;;;;;;;;;;;;;;;;;;5125272;27;1284;-77
2022/04/25 05:47:21;;;;;;;;;;;;;;;;;;5108628;27;1910;-76
2022/04/25 05:52:30;;;;;;;;;;;;;;;;;;5123903;27;1027;-76
2022/04/25 05:54:55;;;;;;;;;;;;;;;;;;5091494;28;1185;-76
2022/04/25 05:57:22;;;;;;;;;;;;;;;;;;5087573;28;1200;-77
2022/04/25 05:59:47;;;;;;;;;;;;;;;;;;5104551;28;1226;-76
2022/04/25 06:02:15;;;;;;;;;;;;;;;;;;5105444;28;1365;-76
2022/04/25 06:04:41;;;;;;;;;;;;;;;;;;5103539;28;1210;-76
2022/04/25 06:07:06;;;;;;;;;;;;;;;;;;5104269;28;1889;-77
2022/04/25 06:09:31;;;;;;;;;;;;;;;;;;5117714;27;1177;-77
2022/04/25 06:11:57;;;;;;;;;;;;;;;;;;5105690;27;1183;-75
2022/04/25 06:14:22;;;;;;;;;;;;;;;;;;5104670;27;1063;-76
2022/04/25 06:16:48;;;;;;;;;;;;;;;;;;5085434;28;1404;-76
2022/04/25 06:19:13;;;;;;;;;;;;;;;;;;5103498;28;1226;-76
2022/04/25 06:21:39;;;;;;;;;;;;;;;;;;5119726;27;1179;-75
2022/04/25 06:24:04;;;;;;;;;;;;;;;;;;5120127;27;1197;-75
2022/04/25 06:26:30;;;;;;;;;;;;;;;;;;5109608;27;1903;-75
2022/04/25 06:28:56;;;;;;;;;;;;;;;;;;5104304;28;1241;-75
2022/04/25 06:31:23;;;;;;;;;;;;;;;;;;5103830;27;1329;-76
2022/04/25 06:33:48;;;;;;;;;;;;;;;;;;5122602;27;1076;-76
2022/04/25 06:36:13;;;;;;;;;;;;;;;;;;5091461;28;1260;-76
2022/04/25 06:38:38;;;;;;;;;;;;;;;;;;5098916;28;1238;-75
2022/04/25 06:41:04;;;;;;;;;;;;;;;;;;5105292;28;1088;-75
2022/04/25 06:43:33;;;;;;;;;;;;;;;;;;5124856;28;1285;-75
2022/04/25 06:45:58;;;;;;;;;;;;;;;;;;5107529;28;1147;-75
2022/04/25 06:48:23;;;;;;;;;;;;;;;;;;5107401;28;1909;-75
2022/04/25 06:50:49;;;;;;;;;;;;;;;;;;5097177;28;1392;-77
2022/04/25 06:53:14;;;;;;;;;;;;;;;;;;5121913;28;1234;-76
2022/04/25 06:55:41;;;;;;;;;;;;;;;;;;5087860;28;1136;-76
2022/04/25 06:58:06;;;;;;;;;;;;;;;;;;5116824;28;1231;-77
2022/04/25 07:00:35;;;;;;;;;;;;;;;;;;5122893;28;1221;-76
2022/04/25 07:03:00;;;;;;;;;;;;;;;;;;5124545;27;1424;-76
2022/04/25 07:05:25;;;;;;;;;;;;;;;;;;5127407;27;1111;-75
2022/04/25 07:07:51;;;;;;;;;;;;;;;;;;5107802;27;1889;-75
2022/04/25 07:10:16;;;;;;;;;;;;;;;;;;5128358;27;1163;-76
2022/04/25 07:12:42;;;;;;;;;;;;;;;;;;5121405;27;1194;-77
2022/04/25 07:15:08;;;;;;;;;;;;;;;;;;5089434;28;1270;-78
2022/04/25 07:17:34;;;;;;;;;;;;;;;;;;5109029;28;1202;-77
2022/04/25 07:19:59;;;;;;;;;;;;;;;;;;5091520;27;1147;-76
2022/04/25 07:30:40;;;;;;;;;;;;;;;;;;5121129;27;1015;-78
2022/04/25 07:33:09;;;;;;;;;;;;;;;;;;5108773;27;1238;-77
2022/04/25 07:35:39;;;;;;;;;;;;;;;;;;5126517;27;1321;-78
2022/04/25 07:38:13;;;;;;;;;;;;;;;;;;5112373;27;1376;-78
2022/04/25 07:40:41;;;;;;;;;;;;;;;;;;5111343;27;1333;-78
2022/04/25 07:43:06;;;;;;;;;;;;;;;;;;5109749;27;1283;-77
2022/04/25 07:45:32;;;;;;;;;;;;;;;;;;5111892;27;1316;-78
2022/04/25 07:47:58;;;;;;;;;;;;;;;;;;5129104;27;1961;-77
2022/04/25 07:50:23;;;;;;;;;;;;;;;;;;5128064;27;783;-78
2022/04/25 07:52:49;;;;;;;;;;;;;;;;;;5127787;27;1164;-78
2022/04/25 07:55:14;;;;;;;;;;;;;;;;;;5125663;27;798;-78
2022/04/25 07:57:40;;;;;;;;;;;;;;;;;;5125512;27;790;-78
2022/04/25 08:00:05;;;;;;;;;;;;;;;;;;5110148;27;1322;-78
2022/04/25 08:02:31;;;;;;;;;;;;;;;;;;5128566;27;1181;-78
2022/04/25 08:04:56;;;;;;;;;;;;;;;;;;5124607;27;1082;-79
2022/04/25 08:07:23;;;;;;;;;;;;;;;;;;5111357;27;1955;-79
2022/04/25 08:09:49;;;;;;;;;;;;;;;;;;5106675;27;1483;-79
2022/04/25 08:18:01;;;;;;;;;;;;;;;;;;5124824;27;1031;-77
2022/04/25 08:20:30;;;;;;;;;;;;;;;;;;5125452;27;1214;-78
2022/04/25 08:22:56;;;;;;;;;;;;;;;;;;5108637;27;1194;-78
2022/04/25 08:25:21;;;;;;;;;;;;;;;;;;5096435;27;1232;-77
2022/04/25 08:27:47;;;;;;;;;;;;;;;;;;5125663;27;1938;-77
2022/04/25 08:30:12;;;;;;;;;;;;;;;;;;5106934;27;1169;-77
2022/04/25 08:32:38;;;;;;;;;;;;;;;;;;5100545;27;1178;-76
2022/04/25 08:35:04;;;;;;;;;;;;;;;;;;5105780;27;1060;-76
2022/04/25 08:37:30;;;;;;;;;;;;;;;;;;5128654;27;1278;-77
2022/04/25 08:39:55;;;;;;;;;;;;;;;;;;5125319;27;1425;-78
2022/04/25 08:42:20;;;;;;;;;;;;;;;;;;5127213;27;1151;-77
2022/04/25 08:44:53;;;;;;;;;;;;;;;;;;5127451;27;1376;-78
2022/04/25 08:47:19;;;;;;;;;;;;;;;;;;5129111;27;1961;-77
2022/04/25 08:49:44;;;;;;;;;;;;;;;;;;5125925;27;1971;-77
2022/04/25 08:52:10;;;;;;;;;;;;;;;;;;5128195;27;1040;-77
2022/04/25 08:54:35;;;;;;;;;;;;;;;;;;5125651;27;1408;-78
2022/04/25 08:57:02;;;;;;;;;;;;;;;;;;5107907;27;1206;-78
2022/04/25 08:59:27;;;;;;;;;;;;;;;;;;5128579;27;1090;-77
2022/04/25 09:01:53;;;;;;;;;;;;;;;;;;5127952;27;1218;-76
2022/04/25 09:04:39;;;;;;;;;;;;;;;;;;5107227;27;1289;-78
2022/04/25 09:07:04;;;;;;;;;;;;;;;;;;5104748;28;1996;-78
2022/04/25 09:09:30;;;;;;;;;;;;;;;;;;5116308;27;1487;-76
2022/04/25 09:12:10;;;;;;;;;;;;;;;;;;5123896;27;1253;-76
2022/04/25 09:14:36;;;;;;;;;;;;;;;;;;5125542;27;1353;-76
2022/04/25 09:17:03;;;;;;;;;;;;;;;;;;5124642;27;1144;-78
2022/04/25 09:19:29;;;;;;;;;;;;;;;;;;5124189;27;1299;-76
2022/04/25 09:21:54;;;;;;;;;;;;;;;;;;5125512;27;1153;-76
2022/04/25 09:24:22;;;;;;;;;;;;;;;;;;5125597;27;1131;-78
2022/04/25 09:26:53;;;;;;;;;;;;;;;;;;5111150;27;1854;-76
2022/04/25 09:29:27;;;;;;;;;;;;;;;;;;5105408;28;1393;-74
2022/04/25 09:31:53;;;;;;;;;;;;;;;;;;5104693;28;1360;-75
2022/04/25 09:34:59;;;;;;;;;;;;;;;;;;5107287;28;1225;-76
2022/04/25 09:37:06;;;;;;;;;;;;;;;;;;5123046;27;1244;-75
2022/04/25 09:39:32;;;;;;;;;;;;;;;;;;5107661;27;1193;-76
2022/04/25 09:41:57;;;;;;;;;;;;;;;;;;5126487;27;878;-75
2022/04/25 09:44:23;;;;;;;;;;;;;;;;;;5127555;27;1176;-75
2022/04/25 09:46:49;;;;;;;;;;;;;;;;;;5127259;27;2012;-75
2022/04/25 09:49:24;;;;;;;;;;;;;;;;;;5125160;27;1149;-75
2022/04/25 09:52:01;;;;;;;;;;;;;;;;;;5125313;27;1230;-75
2022/04/25 09:54:26;;;;;;;;;;;;;;;;;;5124234;27;1051;-75
2022/04/25 09:56:51;;;;;;;;;;;;;;;;;;5124079;27;1138;-75
2022/04/25 09:59:18;;;;;;;;;;;;;;;;;;5127033;27;834;-75
2022/04/25 10:01:45;;;;;;;;;;;;;;;;;;5109084;27;1171;-75
2022/04/25 10:04:33;;;;;;;;;;;;;;;;;;5124973;27;1250;-76
2022/04/25 10:06:59;;;;;;;;;;;;;;;;;;5123682;27;1943;-76
2022/04/25 10:09:28;;;;;;;;;;;;;;;;;;5112947;27;1127;-74
2022/04/25 10:11:57;;;;;;;;;;;;;;;;;;5120813;27;1161;-74
2022/04/25 10:14:22;;;;;;;;;;;;;;;;;;5124446;27;1177;-75
2022/04/25 10:16:48;;;;;;;;;;;;;;;;;;5119759;27;1016;-75
2022/04/25 10:19:14;;;;;;;;;;;;;;;;;;5087359;28;1269;-76
2022/04/25 10:21:40;;;;;;;;;;;;;;;;;;5103414;28;1134;-75
2022/04/25 10:24:06;;;;;;;;;;;;;;;;;;5102654;27;1159;-76
2022/04/25 10:26:31;;;;;;;;;;;;;;;;;;5087421;28;1893;-75
2022/04/25 10:29:02;;;;;;;;;;;;;;;;;;5104031;28;1206;-75
2022/04/25 10:31:28;;;;;;;;;;;;;;;;;;5117944;27;1099;-75
2022/04/25 10:33:55;;;;;;;;;;;;;;;;;;5104869;28;1340;-75
2022/04/25 10:36:36;;;;;;;;;;;;;;;;;;5104625;28;1346;-75
2022/04/25 10:39:11;;;;;;;;;;;;;;;;;;5101689;28;1297;-75
2022/04/25 10:44:20;;;;;;;;;;;;;;;;;;5106135;28;1130;-76
2022/04/25 10:47:24;;;;;;;;;;;;;;;;;;5105578;28;1952;-76
2022/04/25 10:49:53;;;;;;;;;;;;;;;;;;5103386;28;1052;-75
2022/04/25 10:52:33;;;;;;;;;;;;;;;;;;5105697;28;1331;-76
2022/04/25 10:55:14;;;;;;;;;;;;;;;;;;5100263;28;1231;-75
2022/04/25 10:57:58;;;;;;;;;;;;;;;;;;5105300;28;1209;-75
2022/04/25 11:00:45;;;;;;;;;;;;;;;;;;5104919;28;1225;-76
2022/04/25 11:03:10;;;;;;;;;;;;;;;;;;5103485;28;1194;-76
2022/04/25 11:05:37;;;;;;;;;;;;;;;;;;5104072;28;1420;-75
2022/04/25 11:08:23;;;;;;;;;;;;;;;;;;5105177;28;1935;-76
2022/04/25 11:10:49;;;;;;;;;;;;;;;;;;5122358;28;1183;-75
2022/04/25 11:13:18;;;;;;;;;;;;;;;;;;5107606;28;1447;-74
2022/04/25 11:15:47;;;;;;;;;;;;;;;;;;5122934;28;1256;-75
2022/04/25 11:18:55;;;;;;;;;;;;;;;;;;5104511;28;1042;-76
2022/04/25 11:21:16;;;;;;;;;;;;;;;;;;5117919;28;1186;-76
2022/04/25 11:23:44;;;;;;;;;;;;;;;;;;5103220;28;1175;-73
2022/04/25 11:26:21;;;;;;;;;;;;;;;;;;5103110;28;1137;-74
2022/04/25 11:28:58;;;;;;;;;;;;;;;;;;5123643;28;1881;-74
2022/04/25 11:31:32;;;;;;;;;;;;;;;;;;5125475;28;1309;-75
2022/04/25 11:34:01;;;;;;;;;;;;;;;;;;5123802;28;1167;-75
2022/04/25 11:36:29;;;;;;;;;;;;;;;;;;5122857;28;1112;-75
2022/04/25 11:41:40;;;;;;;;;;;;;;;;;;5104043;28;694;-75
2022/04/25 11:44:06;;;;;;;;;;;;;;;;;;5105888;28;1361;-76
2022/04/25 11:46:32;;;;;;;;;;;;;;;;;;5106550;28;2030;-76
2022/04/25 11:48:58;;;;;;;;;;;;;;;;;;5104874;28;1218;-75
2022/04/25 11:51:24;;;;;;;;;;;;;;;;;;5127836;27;1276;-76
2022/04/25 11:53:57;;;;;;;;;;;;;;;;;;5127340;27;1451;-75
2022/04/25 11:56:22;;;;;;;;;;;;;;;;;;5126481;27;1159;-76
2022/04/25 11:58:49;;;;;;;;;;;;;;;;;;5129669;27;1176;-75
2022/04/25 12:01:47;;;;;;;;;;;;;;;;;;5129943;27;1108;-74
2022/04/25 12:04:26;;;;;;;;;;;;;;;;;;5095163;27;1639;-75
2022/04/25 12:06:57;;;;;;;;;;;;;;;;;;5129160;27;1898;-74
2022/04/25 12:15:35;;;;;;;;;;;;;;;;;;5104017;28;1095;-79
2022/04/25 12:18:19;;;;;;;;;;;;;;;;;;5060637;28;1415;-80
2022/04/25 12:20:47;;;;;;;;;;;;;;;;;;5061492;28;1175;-80
2022/04/25 12:23:20;;;;;;;;;;;;;;;;;;5059367;28;1332;-79
2022/04/25 12:25:46;;;;;;;;;;;;;;;;;;5075289;28;1180;-79
2022/04/25 12:28:12;;;;;;;;;;;;;;;;;;5057487;28;1965;-79
2022/04/25 12:30:48;;;;;;;;;;;;;;;;;;5061417;28;1105;-79
2022/04/25 12:33:14;;;;;;;;;;;;;;;;;;5061308;28;1192;-79
2022/04/25 12:35:41;;;;;;;;;;;;;;;;;;5062930;28;1239;-79
2022/04/25 12:38:07;;;;;;;;;;;;;;;;;;5076901;28;1134;-79
2022/04/25 12:40:33;;;;;;;;;;;;;;;;;;5079449;28;1231;-79
2022/04/25 12:43:00;;;;;;;;;;;;;;;;;;5079419;28;1379;-79
2022/04/25 12:45:25;;;;;;;;;;;;;;;;;;5080156;28;1220;-79
2022/04/25 12:47:54;;;;;;;;;;;;;;;;;;5079496;28;1898;-79
2022/04/25 12:50:38;;;;;;;;;;;;;;;;;;5059328;28;1175;-78
2022/04/25 12:53:06;;;;;;;;;;;;;;;;;;5061950;28;1153;-78
2022/04/25 12:55:45;;;;;;;;;;;;;;;;;;5064924;28;1227;-79
2022/04/25 12:58:11;;;;;;;;;;;;;;;;;;5060988;28;1417;-78
2022/04/25 13:00:40;;;;;;;;;;;;;;;;;;5093743;28;1191;-78
2022/04/25 13:03:06;;;;;;;;;;;;;;;;;;5060079;28;1281;-79
2022/04/25 13:05:31;;;;;;;;;;;;;;;;;;5064483;28;1183;-79
2022/04/25 13:07:56;;;;;;;;;;;;;;;;;;5067044;28;1959;-80
2022/04/25 13:10:22;;;;;;;;;;;;;;;;;;5083142;28;1266;-81
2022/04/25 13:12:49;;;;;;;;;;;;;;;;;;5060296;28;1291;-75
2022/04/25 13:15:17;;;;;;;;;;;;;;;;;;5062487;28;1109;-78
2022/04/25 13:17:42;;;;;;;;;;;;;;;;;;5074264;28;1184;-79
2022/04/25 13:20:09;;;;;;;;;;;;;;;;;;5072828;28;902;-78
2022/04/25 13:22:34;;;;;;;;;;;;;;;;;;5068816;28;830;-79
2022/04/25 13:25:00;;;;;;;;;;;;;;;;;;5067571;28;1218;-79
2022/04/25 13:27:25;;;;;;;;;;;;;;;;;;5049076;28;1224;-78
2022/04/25 13:29:51;;;;;;;;;;;;;;;;;;5067663;28;1998;-79
2022/04/25 13:32:16;;;;;;;;;;;;;;;;;;5066821;28;1194;-78
2022/04/25 13:34:42;;;;;;;;;;;;;;;;;;5065611;28;1287;-79
2022/04/25 13:37:07;;;;;;;;;;;;;;;;;;5068325;28;822;-78
2022/04/25 13:39:33;;;;;;;;;;;;;;;;;;5066353;28;1301;-80
2022/04/25 13:42:02;;;;;;;;;;;;;;;;;;5067427;28;795;-78
2022/04/25 13:44:27;;;;;;;;;;;;;;;;;;5048379;28;1053;-79
2022/04/25 13:46:53;;;;;;;;;;;;;;;;;;5067930;28;1158;-79
2022/04/25 13:49:20;;;;;;;;;;;;;;;;;;5065612;28;1951;-78
2022/04/25 13:51:45;;;;;;;;;;;;;;;;;;5058376;28;1444;-78
2022/04/25 13:54:11;;;;;;;;;;;;;;;;;;5028812;28;1308;-79
2022/04/25 13:56:36;;;;;;;;;;;;;;;;;;5044966;28;1355;-79
2022/04/25 13:59:02;;;;;;;;;;;;;;;;;;5046166;28;1172;-79
2022/04/25 14:01:27;;;;;;;;;;;;;;;;;;5078917;28;1182;-79
2022/04/25 14:03:53;;;;;;;;;;;;;;;;;;5048527;28;1235;-79
2022/04/25 14:06:22;;;;;;;;;;;;;;;;;;5058180;28;1264;-77
2022/04/25 14:08:47;;;;;;;;;;;;;;;;;;5039420;28;1902;-79
2022/04/25 14:11:13;;;;;;;;;;;;;;;;;;5025261;28;1290;-79
2022/04/25 14:13:38;;;;;;;;;;;;;;;;;;5066544;28;1281;-78
2022/04/25 14:16:08;;;;;;;;;;;;;;;;;;5061813;28;1267;-78
2022/04/25 14:18:34;;;;;;;;;;;;;;;;;;5053698;28;1330;-77
2022/04/25 14:20:59;;;;;;;;;;;;;;;;;;5062611;28;1197;-78
2022/04/25 14:23:25;;;;;;;;;;;;;;;;;;5043726;28;1346;-78
2022/04/25 14:25:51;;;;;;;;;;;;;;;;;;5076801;28;1256;-78
2022/04/25 14:28:16;;;;;;;;;;;;;;;;;;5060872;28;1906;-78
2022/04/25 14:30:42;;;;;;;;;;;;;;;;;;5064410;28;1269;-77
2022/04/25 14:33:08;;;;;;;;;;;;;;;;;;5066252;28;1125;-78
2022/04/25 14:35:34;;;;;;;;;;;;;;;;;;5045423;28;1393;-78
2022/04/25 14:37:59;;;;;;;;;;;;;;;;;;5045174;28;1377;-78
2022/04/25 14:40:25;;;;;;;;;;;;;;;;;;5042240;28;1341;-78
2022/04/25 14:42:50;;;;;;;;;;;;;;;;;;5068265;28;1283;-78
2022/04/25 14:45:16;;;;;;;;;;;;;;;;;;5056947;28;1111;-78
2022/04/25 14:47:43;;;;;;;;;;;;;;;;;;5047183;28;1886;-78
2022/04/25 14:55:37;;;;;;;;;;;;;;;;;;5044368;28;1076;-78
2022/04/25 14:58:02;;;;;;;;;;;;;;;;;;5056762;28;1071;-79
2022/04/25 15:00:28;;;;;;;;;;;;;;;;;;5043909;28;1319;-78
2022/04/25 15:02:53;;;;;;;;;;;;;;;;;;5078264;28;1222;-78
2022/04/25 15:05:18;;;;;;;;;;;;;;;;;;5042091;28;1235;-78
2022/04/25 15:07:44;;;;;;;;;;;;;;;;;;5050603;28;1988;-78
2022/04/25 15:10:11;;;;;;;;;;;;;;;;;;5056262;28;1201;-78
2022/04/25 15:12:36;;;;;;;;;;;;;;;;;;5040813;28;1346;-79
2022/04/25 15:15:02;;;;;;;;;;;;;;;;;;5060838;28;1145;-79
2022/04/25 15:17:28;;;;;;;;;;;;;;;;;;5064582;28;1125;-82
2022/04/25 15:19:53;;;;;;;;;;;;;;;;;;5032551;28;1156;-81
2022/04/25 15:22:18;;;;;;;;;;;;;;;;;;5065501;28;996;-82
2022/04/25 15:24:43;;;;;;;;;;;;;;;;;;5058381;28;1379;-82
2022/04/25 15:27:09;;;;;;;;;;;;;;;;;;5046993;28;1374;-81
2022/04/25 15:29:44;;;;;;;;;;;;;;;;;;5070140;28;1886;-79
2022/04/25 15:32:11;;;;;;;;;;;;;;;;;;5043783;28;1183;-82
2022/04/25 15:34:37;;;;;;;;;;;;;;;;;;5058756;28;1056;-82
2022/04/25 15:37:02;;;;;;;;;;;;;;;;;;5050076;28;1259;-80
2022/04/25 15:39:34;;;;;;;;;;;;;;;;;;5034309;28;1315;-82
2022/04/25 15:42:00;;;;;;;;;;;;;;;;;;5048895;28;1280;-82
2022/04/25 15:44:25;;;;;;;;;;;;;;;;;;5030966;28;1258;-83
2022/04/25 15:46:50;;;;;;;;;;;;;;;;;;5053056;28;1196;-81
2022/04/25 15:49:20;;;;;;;;;;;;;;;;;;5053301;28;1951;-80
2022/04/25 15:51:45;;;;;;;;;;;;;;;;;;5058732;28;1226;-80
2022/04/25 15:59:39;;;;;;;;;;;;;;;;;;5051939;28;958;-81
2022/04/25 16:02:05;;;;;;;;;;;;;;;;;;5076141;28;1286;-80
2022/04/25 16:04:37;;;;;;;;;;;;;;;;;;5058551;28;1117;-81
2022/04/25 16:07:02;;;;;;;;;;;;;;;;;;5062159;28;1144;-82
2022/04/25 16:09:48;;;;;;;;;;;;;;;;;;5047787;28;1989;-80
2022/04/25 16:12:19;;;;;;;;;;;;;;;;;;5061575;28;1247;-82
2022/04/25 16:14:44;;;;;;;;;;;;;;;;;;5045693;28;1325;-82
2022/04/25 16:17:10;;;;;;;;;;;;;;;;;;5085776;28;1227;-82
2022/04/25 16:19:36;;;;;;;;;;;;;;;;;;5048292;28;1143;-81
2022/04/25 16:22:01;;;;;;;;;;;;;;;;;;5049783;28;1200;-82
2022/04/25 16:24:26;;;;;;;;;;;;;;;;;;5088400;28;1155;-82
2022/04/25 16:26:52;;;;;;;;;;;;;;;;;;5096469;28;1159;-82
2022/04/25 16:29:24;;;;;;;;;;;;;;;;;;5043501;28;1922;-81
2022/04/25 16:31:50;;;;;;;;;;;;;;;;;;5058596;28;1270;-80
2022/04/25 16:34:22;;;;;;;;;;;;;;;;;;5040188;28;1189;-79
2022/04/25 16:36:48;;;;;;;;;;;;;;;;;;5042391;28;1425;-77
2022/04/25 16:39:15;;;;;;;;;;;;;;;;;;5044826;28;1136;-75
2022/04/25 16:41:43;;;;;;;;;;;;;;;;;;5043176;28;1293;-75
2022/04/25 16:44:08;;;;;;;;;;;;;;;;;;5062531;28;1097;-77
2022/04/25 16:46:33;;;;;;;;;;;;;;;;;;5060864;28;1127;-78
2022/04/25 16:48:59;;;;;;;;;;;;;;;;;;5059732;28;1963;-77
2022/04/25 16:51:24;;;;;;;;;;;;;;;;;;5042780;28;1192;-76
2022/04/25 16:53:49;;;;;;;;;;;;;;;;;;5054134;28;1169;-77
2022/04/25 16:56:21;;;;;;;;;;;;;;;;;;5034542;28;1259;-77
2022/04/25 16:58:46;;;;;;;;;;;;;;;;;;5052458;28;1246;-76
2022/04/25 17:01:11;;;;;;;;;;;;;;;;;;5090665;28;1155;-77
2022/04/25 17:03:37;;;;;;;;;;;;;;;;;;5048491;28;1236;-79
2022/04/25 17:06:02;;;;;;;;;;;;;;;;;;5067055;28;1223;-79
2022/04/25 17:08:27;;;;;;;;;;;;;;;;;;5049557;28;1997;-81
2022/04/25 17:10:55;;;;;;;;;;;;;;;;;;5047417;28;1260;-82
2022/04/25 17:13:24;;;;;;;;;;;;;;;;;;5054682;28;1287;-80
2022/04/25 17:15:51;;;;;;;;;;;;;;;;;;5067481;28;1224;-82
2022/04/25 17:18:17;;;;;;;;;;;;;;;;;;5068409;28;1197;-82
2022/04/25 17:20:42;;;;;;;;;;;;;;;;;;5069052;28;1234;-81
2022/04/25 17:23:07;;;;;;;;;;;;;;;;;;5051350;28;1295;-81
2022/04/25 17:25:32;;;;;;;;;;;;;;;;;;5064501;28;1216;-82
2022/04/25 17:27:58;;;;;;;;;;;;;;;;;;5053502;28;1983;-82
2022/04/25 17:30:26;;;;;;;;;;;;;;;;;;5053898;28;1393;-81
2022/04/25 17:35:37;;;;;;;;;;;;;;;;;;5067653;28;650;-82
